Time;durP1;ratioP1;P1;durP2;ratioP2;P2;SDS_P1;SDS_P2;PMS_P1;PMS_P2;Temp;Humidity;BMP_temperature;BMP_pressure;BME280_temperature;BME280_humidity;BME280_pressure;Samples;Min_cycle;Max_cycle;Signal;HPM_P1;HPM_P2
2022/06/16 00:00:33;;;;;;;;;;;20.10;48.80;;;;;;5168454;27;19922;-45
2022/06/16 00:02:59;;;;;;;;;;;19.80;48.70;;;;;;5160467;27;19930;-47
2022/06/16 00:05:27;;;;;;;;;;;20.60;49.90;;;;;;5161841;27;19927;-47
2022/06/16 00:07:52;;;;;;;;;;;21.60;47.80;;;;;;5167955;27;20359;-47
2022/06/16 00:10:18;;;;;;;;;;;21.30;47.60;;;;;;5162478;27;19958;-47
2022/06/16 00:12:44;;;;;;;;;;;20.40;48.90;;;;;;5162292;27;20048;-45
2022/06/16 00:15:12;;;;;;;;;;;20.10;49.00;;;;;;5168332;27;19927;-46
2022/06/16 00:17:37;;;;;;;;;;;19.80;49.10;;;;;;5162748;27;19933;-47
2022/06/16 00:20:04;;;;;;;;;;;20.80;49.80;;;;;;5164472;27;19926;-53
2022/06/16 00:22:31;;;;;;;;;;;21.80;47.60;;;;;;5164597;27;19930;-47
2022/06/16 00:24:57;;;;;;;;;;;20.90;48.50;;;;;;5162161;27;19927;-45
2022/06/16 00:27:22;;;;;;;;;;;20.30;48.90;;;;;;5167955;27;20127;-47
2022/06/16 00:29:48;;;;;;;;;;;19.80;48.90;;;;;;5162682;27;20022;-46
2022/06/16 00:32:14;;;;;;;;;;;19.80;50.10;;;;;;5162885;27;19926;-46
2022/06/16 00:34:40;;;;;;;;;;;20.90;49.40;;;;;;5168114;27;19976;-46
2022/06/16 00:37:06;;;;;;;;;;;21.80;47.40;;;;;;5162426;27;19973;-45
2022/06/16 00:39:31;;;;;;;;;;;20.90;48.60;;;;;;5160528;27;20009;-48
2022/06/16 00:42:06;;;;;;;;;;;20.20;49.10;;;;;;5166970;27;19939;-47
2022/06/16 00:44:31;;;;;;;;;;;19.90;48.70;;;;;;5162232;27;19923;-45
2022/06/16 00:46:57;;;;;;;;;;;20.00;49.90;;;;;;5167798;27;19979;-45
2022/06/16 00:49:23;;;;;;;;;;;21.00;49.50;;;;;;5165294;27;19930;-46
2022/06/16 00:51:50;;;;;;;;;;;21.80;47.30;;;;;;5147978;27;20421;-49
2022/06/16 00:54:19;;;;;;;;;;;20.70;48.80;;;;;;5171764;27;19923;-45
2022/06/16 00:56:45;;;;;;;;;;;20.30;49.00;;;;;;5165394;27;20019;-46
2022/06/16 00:59:11;;;;;;;;;;;19.90;49.10;;;;;;5144096;27;20174;-49
2022/06/16 01:01:38;;;;;;;;;;;19.80;49.70;;;;;;5152039;27;19933;-46
2022/06/16 01:06:48;;;;;;;;;;;21.80;47.80;;;;;;5148790;27;20246;-46
2022/06/16 01:09:18;;;;;;;;;;;20.80;48.80;;;;;;5171826;27;19922;-46
2022/06/16 01:14:54;;;;;;;;;;;20.00;48.70;;;;;;5150079;27;19929;-48
2022/06/16 01:17:39;;;;;;;;;;;20.80;50.00;;;;;;5169394;27;20276;-46
2022/06/16 01:20:04;;;;;;;;;;;21.80;47.50;;;;;;5165117;27;19933;-46
2022/06/16 01:22:49;;;;;;;;;;;20.80;48.50;;;;;;5165251;27;19927;-45
2022/06/16 01:25:24;;;;;;;;;;;20.10;49.00;;;;;;5171375;27;20437;-45
2022/06/16 01:27:59;;;;;;;;;;;19.80;49.30;;;;;;5147149;27;19923;-46
2022/06/16 01:30:35;;;;;;;;;;;20.70;50.00;;;;;;5165654;27;19971;-45
2022/06/16 01:33:04;;;;;;;;;;;21.70;47.60;;;;;;5152280;27;19931;-52
2022/06/16 01:35:30;;;;;;;;;;;20.90;48.30;;;;;;5163136;27;19923;-45
2022/06/16 01:37:58;;;;;;;;;;;20.20;49.10;;;;;;5164806;27;20362;-46
2022/06/16 01:40:32;;;;;;;;;;;19.80;48.90;;;;;;5170784;27;19946;-46
2022/06/16 01:43:11;;;;;;;;;;;19.90;49.60;;;;;;5146794;27;19930;-46
2022/06/16 01:45:41;;;;;;;;;;;20.90;49.40;;;;;;5146758;27;19936;-46
2022/06/16 01:48:08;;;;;;;;;;;21.80;47.10;;;;;;5170873;27;19952;-48
2022/06/16 01:50:35;;;;;;;;;;;20.80;48.30;;;;;;5165365;27;19929;-46
2022/06/16 01:53:02;;;;;;;;;;;20.10;48.80;;;;;;5145794;27;19926;-54
2022/06/16 01:55:30;;;;;;;;;;;19.80;49.20;;;;;;5169447;27;19936;-46
2022/06/16 01:57:56;;;;;;;;;;;19.90;50.30;;;;;;5145461;27;20442;-47
2022/06/16 02:00:23;;;;;;;;;;;21.10;49.00;;;;;;5169242;27;20009;-46
2022/06/16 02:02:54;;;;;;;;;;;21.80;46.90;;;;;;5165194;27;20017;-47
2022/06/16 02:05:20;;;;;;;;;;;20.70;48.40;;;;;;5145206;27;20006;-45
2022/06/16 02:07:48;;;;;;;;;;;20.00;49.10;;;;;;5151842;27;19923;-47
2022/06/16 02:10:17;;;;;;;;;;;19.60;48.90;;;;;;5163977;27;19923;-48
2022/06/16 02:12:55;;;;;;;;;;;20.50;49.80;;;;;;5143806;27;20422;-46
2022/06/16 02:15:48;;;;;;;;;;;21.60;47.40;;;;;;5153035;27;19929;-46
2022/06/16 02:18:15;;;;;;;;;;;21.10;47.60;;;;;;5159458;27;20284;-48
2022/06/16 02:20:51;;;;;;;;;;;20.30;48.50;;;;;;5164725;27;20308;-46
2022/06/16 02:23:17;;;;;;;;;;;20.00;48.60;;;;;;5170391;27;19948;-47
2022/06/16 02:25:43;;;;;;;;;;;19.90;49.70;;;;;;5145843;27;19930;-48
2022/06/16 02:28:09;;;;;;;;;;;20.90;49.00;;;;;;5164328;27;20429;-47
2022/06/16 02:30:36;;;;;;;;;;;21.80;46.80;;;;;;5167829;27;19927;-50
2022/06/16 02:33:07;;;;;;;;;;;21.00;47.70;;;;;;5164040;27;19925;-45
2022/06/16 02:35:39;;;;;;;;;;;20.30;48.50;;;;;;5166302;27;20067;-56
2022/06/16 02:38:07;;;;;;;;;;;19.80;49.10;;;;;;5151312;27;20039;-47
2022/06/16 02:40:36;;;;;;;;;;;19.90;49.40;;;;;;5164406;27;19980;-48
2022/06/16 02:43:04;;;;;;;;;;;20.90;48.80;;;;;;5170061;27;20099;-46
2022/06/16 02:45:30;;;;;;;;;;;21.80;46.70;;;;;;5164239;27;20313;-46
2022/06/16 02:48:15;;;;;;;;;;;20.80;48.10;;;;;;5162368;27;20210;-47
2022/06/16 02:50:50;;;;;;;;;;;20.10;49.00;;;;;;5148932;27;19945;-46
2022/06/16 02:53:24;;;;;;;;;;;19.70;49.60;;;;;;5163735;27;19978;-47
2022/06/16 02:55:51;;;;;;;;;;;20.80;49.30;;;;;;5145676;27;19931;-48
2022/06/16 02:58:17;;;;;;;;;;;21.80;46.70;;;;;;5169282;27;20029;-46
2022/06/16 03:00:44;;;;;;;;;;;20.70;48.30;;;;;;5164076;27;20074;-46
2022/06/16 03:03:15;;;;;;;;;;;20.00;49.00;;;;;;5163886;27;20086;-47
2022/06/16 03:05:41;;;;;;;;;;;19.80;48.50;;;;;;5168155;27;19927;-46
2022/06/16 03:08:07;;;;;;;;;;;20.50;49.80;;;;;;5162120;27;20310;-47
2022/06/16 03:10:51;;;;;;;;;;;21.50;47.50;;;;;;5162878;27;19923;-46
2022/06/16 03:13:21;;;;;;;;;;;21.30;47.30;;;;;;5169051;27;19937;-46
2022/06/16 03:15:47;;;;;;;;;;;20.30;48.50;;;;;;5163780;27;19923;-45
2022/06/16 03:18:13;;;;;;;;;;;19.80;48.90;;;;;;5163964;27;19923;-55
2022/06/16 03:20:39;;;;;;;;;;;19.60;48.90;;;;;;5169025;27;20366;-47
2022/06/16 03:23:04;;;;;;;;;;;20.30;49.90;;;;;;5163242;27;19923;-45
2022/06/16 03:25:30;;;;;;;;;;;21.40;48.10;;;;;;5166450;27;19926;-46
2022/06/16 03:27:57;;;;;;;;;;;21.40;47.10;;;;;;5162728;27;19946;-47
2022/06/16 03:30:23;;;;;;;;;;;20.20;49.20;;;;;;5163052;27;19929;-47
2022/06/16 03:32:49;;;;;;;;;;;19.90;48.70;;;;;;5168664;27;19930;-46
2022/06/16 03:35:15;;;;;;;;;;;19.90;50.00;;;;;;5163154;27;19927;-46
2022/06/16 03:37:41;;;;;;;;;;;20.90;49.10;;;;;;5163419;27;19922;-45
2022/06/16 03:40:08;;;;;;;;;;;21.90;46.80;;;;;;5168650;27;20009;-46
2022/06/16 03:42:34;;;;;;;;;;;20.70;48.50;;;;;;5161875;27;19927;-46
2022/06/16 03:44:59;;;;;;;;;;;20.00;49.40;;;;;;5167205;27;19923;-45
2022/06/16 03:47:25;;;;;;;;;;;19.80;48.80;;;;;;5162720;27;19930;-45
2022/06/16 03:49:51;;;;;;;;;;;20.40;49.80;;;;;;5163069;27;19931;-45
2022/06/16 03:52:17;;;;;;;;;;;21.50;47.80;;;;;;5150079;27;19966;-44
2022/06/16 03:54:42;;;;;;;;;;;21.30;47.20;;;;;;5163283;27;19933;-45
2022/06/16 03:57:08;;;;;;;;;;;20.20;49.00;;;;;;5162892;27;19923;-45
2022/06/16 03:59:34;;;;;;;;;;;20.00;48.70;;;;;;5168361;27;19922;-46
2022/06/16 04:02:00;;;;;;;;;;;19.70;48.40;;;;;;5160727;27;20259;-47
2022/06/16 04:04:26;;;;;;;;;;;20.30;50.10;;;;;;5167516;27;19933;-45
2022/06/16 04:06:51;;;;;;;;;;;21.30;48.00;;;;;;5162658;27;19930;-46
2022/06/16 04:09:17;;;;;;;;;;;21.70;46.70;;;;;;5162710;27;19946;-45
2022/06/16 04:11:43;;;;;;;;;;;20.50;48.30;;;;;;5168262;27;19927;-45
2022/06/16 04:14:10;;;;;;;;;;;20.00;48.80;;;;;;5163069;27;20454;-45
2022/06/16 04:16:39;;;;;;;;;;;19.80;48.80;;;;;;5162649;27;19944;-48
2022/06/16 04:19:05;;;;;;;;;;;20.30;50.30;;;;;;5148582;27;19945;-52
2022/06/16 04:21:31;;;;;;;;;;;21.40;48.20;;;;;;5161224;27;20005;-44
2022/06/16 04:23:57;;;;;;;;;;;21.60;47.10;;;;;;5147493;27;19931;-53
2022/06/16 04:26:23;;;;;;;;;;;20.40;48.80;;;;;;5151175;27;19926;-48
2022/06/16 04:28:49;;;;;;;;;;;19.80;49.20;;;;;;5166924;27;19929;-45
2022/06/16 04:31:15;;;;;;;;;;;19.70;49.10;;;;;;5172483;27;19923;-49
2022/06/16 04:33:40;;;;;;;;;;;20.60;49.80;;;;;;5167013;27;20064;-48
2022/06/16 04:36:06;;;;;;;;;;;21.60;47.90;;;;;;5166925;27;19922;-47
2022/06/16 04:38:32;;;;;;;;;;;21.30;47.60;;;;;;5151619;27;19927;-46
2022/06/16 04:40:58;;;;;;;;;;;20.30;49.00;;;;;;5165835;27;19927;-47
2022/06/16 04:43:25;;;;;;;;;;;19.70;49.50;;;;;;5166256;27;20289;-47
2022/06/16 04:45:50;;;;;;;;;;;19.80;50.10;;;;;;5172133;27;19933;-47
2022/06/16 04:48:16;;;;;;;;;;;20.80;49.90;;;;;;5166539;27;20895;-46
2022/06/16 04:50:42;;;;;;;;;;;21.80;47.60;;;;;;5172217;27;19926;-46
2022/06/16 04:53:08;;;;;;;;;;;20.90;48.50;;;;;;5166575;27;19922;-45
2022/06/16 04:55:34;;;;;;;;;;;20.30;49.00;;;;;;5165695;27;20301;-49
2022/06/16 04:58:01;;;;;;;;;;;19.80;49.60;;;;;;5170038;27;20281;-46
2022/06/16 05:00:27;;;;;;;;;;;20.00;50.40;;;;;;5165824;27;19923;-46
2022/06/16 05:02:52;;;;;;;;;;;21.00;50.10;;;;;;5166165;27;20584;-46
2022/06/16 05:05:18;;;;;;;;;;;21.80;48.10;;;;;;5171720;27;19922;-45
2022/06/16 05:07:44;;;;;;;;;;;20.70;49.50;;;;;;5166220;27;20013;-46
2022/06/16 05:10:11;;;;;;;;;;;20.00;49.80;;;;;;5171822;27;20394;-47
2022/06/16 05:12:37;;;;;;;;;;;19.60;50.30;;;;;;5166162;27;19922;-47
2022/06/16 05:15:03;;;;;;;;;;;19.70;51.00;;;;;;5164179;27;20354;-46
2022/06/16 05:17:29;;;;;;;;;;;20.80;51.10;;;;;;5170449;27;20022;-46
2022/06/16 05:19:55;;;;;;;;;;;21.80;49.00;;;;;;5165453;27;20385;-46
2022/06/16 05:22:21;;;;;;;;;;;21.00;49.40;;;;;;5165578;27;20359;-46
2022/06/16 05:24:46;;;;;;;;;;;20.30;49.90;;;;;;5171336;27;19923;-46
2022/06/16 05:27:13;;;;;;;;;;;19.90;50.10;;;;;;5166014;27;20022;-45
2022/06/16 05:29:38;;;;;;;;;;;19.70;50.00;;;;;;5170409;27;19923;-52
2022/06/16 05:32:04;;;;;;;;;;;20.10;51.80;;;;;;5166391;27;19933;-48
2022/06/16 05:34:30;;;;;;;;;;;21.20;50.70;;;;;;5163453;27;19989;-44
2022/06/16 05:36:56;;;;;;;;;;;21.70;49.30;;;;;;5170508;27;19951;-47
2022/06/16 05:39:22;;;;;;;;;;;20.50;50.40;;;;;;5165696;27;19930;-46
2022/06/16 05:41:48;;;;;;;;;;;20.10;50.30;;;;;;5165694;27;20441;-46
2022/06/16 05:44:13;;;;;;;;;;;19.80;50.10;;;;;;5171081;27;19923;-45
2022/06/16 05:46:40;;;;;;;;;;;20.20;52.20;;;;;;5165456;27;20404;-45
2022/06/16 05:49:06;;;;;;;;;;;21.20;51.30;;;;;;5167594;27;20010;-53
2022/06/16 05:51:32;;;;;;;;;;;21.80;49.20;;;;;;5167354;27;19934;-50
2022/06/16 05:53:57;;;;;;;;;;;20.60;50.60;;;;;;5164141;27;20466;-48
2022/06/16 05:56:23;;;;;;;;;;;20.20;50.30;;;;;;5170452;27;19930;-47
2022/06/16 05:58:49;;;;;;;;;;;19.80;50.30;;;;;;5165160;27;19996;-47
2022/06/16 06:01:15;;;;;;;;;;;20.00;52.60;;;;;;5165115;27;19922;-46
2022/06/16 06:03:41;;;;;;;;;;;21.10;51.80;;;;;;5170817;27;19927;-45
2022/06/16 06:06:07;;;;;;;;;;;21.80;49.50;;;;;;5164894;27;19962;-45
2022/06/16 06:16:47;;;;;;;;;;;20.00;51.90;;;;;;5162584;27;19929;-46
2022/06/16 06:19:28;;;;;;;;;;;21.10;52.10;;;;;;5151739;27;20366;-46
2022/06/16 06:21:58;;;;;;;;;;;21.80;50.10;;;;;;5164763;27;19926;-49
2022/06/16 06:24:24;;;;;;;;;;;20.60;50.90;;;;;;5164788;27;19927;-48
2022/06/16 06:26:50;;;;;;;;;;;20.00;51.10;;;;;;5169958;27;19923;-47
2022/06/16 06:29:16;;;;;;;;;;;19.80;50.90;;;;;;5162173;27;19965;-46
2022/06/16 06:31:41;;;;;;;;;;;19.90;52.10;;;;;;5165807;27;19926;-53
2022/06/16 06:34:07;;;;;;;;;;;20.90;52.60;;;;;;5168076;27;20354;-46
2022/06/16 06:36:33;;;;;;;;;;;21.80;50.60;;;;;;5164583;27;19923;-46
2022/06/16 06:39:02;;;;;;;;;;;21.10;50.70;;;;;;5151492;27;19930;-45
2022/06/16 06:41:27;;;;;;;;;;;20.30;50.90;;;;;;5164740;27;20025;-45
2022/06/16 06:43:53;;;;;;;;;;;20.20;50.30;;;;;;5164146;27;20459;-45
2022/06/16 06:46:19;;;;;;;;;;;19.80;50.10;;;;;;5167478;27;20103;-45
2022/06/16 06:48:45;;;;;;;;;;;20.50;52.80;;;;;;5162834;27;19923;-47
2022/06/16 06:51:10;;;;;;;;;;;21.40;51.40;;;;;;5163471;27;20311;-47
2022/06/16 06:53:36;;;;;;;;;;;21.70;49.80;;;;;;5169483;27;19923;-45
2022/06/16 06:56:02;;;;;;;;;;;20.60;50.80;;;;;;5164216;27;19923;-47
2022/06/16 06:58:32;;;;;;;;;;;20.20;50.60;;;;;;5133663;27;19926;-45
2022/06/16 07:01:01;;;;;;;;;;;19.90;50.50;;;;;;5163909;27;19945;-48
2022/06/16 07:03:27;;;;;;;;;;;19.90;51.00;;;;;;5163937;27;19926;-50
2022/06/16 07:05:53;;;;;;;;;;;20.80;52.40;;;;;;5167138;27;19923;-49
2022/06/16 07:08:18;;;;;;;;;;;21.80;50.50;;;;;;5163132;27;19922;-47
2022/06/16 07:10:44;;;;;;;;;;;21.20;50.40;;;;;;5163331;27;19922;-45
2022/06/16 07:13:10;;;;;;;;;;;20.50;50.70;;;;;;5169080;27;19974;-47
2022/06/16 07:15:37;;;;;;;;;;;20.20;50.40;;;;;;5163638;27;19933;-45
2022/06/16 07:18:03;;;;;;;;;;;19.90;50.10;;;;;;5167992;27;20013;-55
2022/06/16 07:20:30;;;;;;;;;;;19.80;51.90;;;;;;5165338;27;20092;-46
2022/06/16 07:22:56;;;;;;;;;;;20.90;52.20;;;;;;5162487;27;19930;-45
2022/06/16 07:25:22;;;;;;;;;;;21.80;50.70;;;;;;5167710;27;19923;-45
2022/06/16 07:27:47;;;;;;;;;;;20.80;51.20;;;;;;5162936;27;20267;-44
2022/06/16 07:30:15;;;;;;;;;;;20.40;50.80;;;;;;5163114;27;19956;-45
2022/06/16 07:32:41;;;;;;;;;;;20.10;50.70;;;;;;5149461;27;19933;-46
2022/06/16 07:35:07;;;;;;;;;;;19.90;51.50;;;;;;5163376;27;19929;-47
2022/06/16 07:37:33;;;;;;;;;;;20.80;53.00;;;;;;5164014;27;20017;-53
2022/06/16 07:39:59;;;;;;;;;;;21.80;50.90;;;;;;5168696;27;19923;-44
2022/06/16 07:42:24;;;;;;;;;;;21.30;50.60;;;;;;5161195;27;19923;-50
2022/06/16 07:44:50;;;;;;;;;;;20.50;51.20;;;;;;5167808;27;19927;-46
2022/06/16 07:47:16;;;;;;;;;;;20.30;50.70;;;;;;5162747;27;19932;-46
2022/06/16 07:49:48;;;;;;;;;;;20.20;50.20;;;;;;5162972;27;19926;-46
2022/06/16 07:52:14;;;;;;;;;;;20.10;51.90;;;;;;5168507;27;19930;-47
2022/06/16 07:54:40;;;;;;;;;;;21.10;52.50;;;;;;5163082;27;20017;-45
2022/06/16 07:57:05;;;;;;;;;;;21.90;50.40;;;;;;5162971;27;20225;-44
2022/06/16 07:59:31;;;;;;;;;;;21.10;50.90;;;;;;5167331;27;19934;-48
2022/06/16 08:01:57;;;;;;;;;;;20.40;51.20;;;;;;5161166;27;20026;-47
2022/06/16 08:04:23;;;;;;;;;;;20.40;50.30;;;;;;5147481;27;19923;-48
2022/06/16 08:06:49;;;;;;;;;;;20.20;50.40;;;;;;5162492;27;19930;-45
2022/06/16 08:09:15;;;;;;;;;;;20.10;50.00;;;;;;5162951;27;20302;-46
2022/06/16 08:14:25;;;;;;;;;;;21.30;52.40;;;;;;5162915;27;20005;-48
2022/06/16 08:16:51;;;;;;;;;;;21.80;51.10;;;;;;5162927;27;19933;-46
2022/06/16 08:19:17;;;;;;;;;;;20.80;51.70;;;;;;5165907;27;19934;-45
2022/06/16 08:21:46;;;;;;;;;;;20.30;51.40;;;;;;5161782;27;19930;-46
2022/06/16 08:24:12;;;;;;;;;;;20.20;51.00;;;;;;5162453;27;19953;-49
2022/06/16 08:26:38;;;;;;;;;;;20.10;50.50;;;;;;5168186;27;19931;-45
2022/06/16 08:29:06;;;;;;;;;;;20.00;52.30;;;;;;5161898;27;21435;-47
2022/06/16 08:31:32;;;;;;;;;;;21.10;53.20;;;;;;5149636;27;19923;-47
2022/06/16 08:33:57;;;;;;;;;;;21.80;51.60;;;;;;5142564;27;20439;-46
2022/06/16 08:36:23;;;;;;;;;;;21.20;51.30;;;;;;5161312;27;20141;-49
2022/06/16 08:38:49;;;;;;;;;;;20.50;51.60;;;;;;5166331;27;19970;-48
2022/06/16 08:41:17;;;;;;;;;;;20.20;51.00;;;;;;5162012;27;19926;-46
2022/06/16 08:43:48;;;;;;;;;;;20.30;50.20;;;;;;5143810;27;19990;-47
2022/06/16 08:46:15;;;;;;;;;;;20.10;50.30;;;;;;5132216;27;20025;-45
2022/06/16 08:48:58;;;;;;;;;;;20.00;50.10;;;;;;5144110;27;19926;-45
2022/06/16 08:51:33;;;;;;;;;;;20.00;49.60;;;;;;5144766;27;20105;-45
2022/06/16 08:54:08;;;;;;;;;;;20.10;52.00;;;;;;5167889;27;20447;-46
2022/06/16 08:56:42;;;;;;;;;;;21.00;53.10;;;;;;5160281;27;20310;-45
2022/06/16 08:59:07;;;;;;;;;;;21.80;51.50;;;;;;5143110;27;19933;-45
2022/06/16 09:01:39;;;;;;;;;;;21.20;51.20;;;;;;5167738;27;20234;-49
2022/06/16 09:04:43;;;;;;;;;;;20.60;51.40;;;;;;5143757;27;19933;-45
2022/06/16 09:07:15;;;;;;;;;;;20.30;50.80;;;;;;5057070;28;20023;-46
2022/06/16 09:10:15;;;;;;;;;;;20.20;50.30;;;;;;5047655;28;20380;-45
2022/06/16 09:12:47;;;;;;;;;;;20.00;50.10;;;;;;5137653;27;19927;-47
2022/06/16 09:15:22;;;;;;;;;;;20.50;52.50;;;;;;5164473;27;19962;-46
2022/06/16 09:17:51;;;;;;;;;;;21.50;51.90;;;;;;5171037;27;19922;-48
2022/06/16 09:20:18;;;;;;;;;;;21.60;50.70;;;;;;5165575;27;20289;-45
2022/06/16 09:22:54;;;;;;;;;;;20.70;51.30;;;;;;5165764;27;19940;-45
2022/06/16 09:25:24;;;;;;;;;;;20.30;51.10;;;;;;5152776;27;19932;-47
2022/06/16 09:28:11;;;;;;;;;;;20.20;50.70;;;;;;5146198;27;20000;-45
2022/06/16 09:30:37;;;;;;;;;;;20.00;50.40;;;;;;5146171;27;19990;-46
2022/06/16 09:33:08;;;;;;;;;;;20.10;51.40;;;;;;5168763;27;19927;-49
2022/06/16 09:35:35;;;;;;;;;;;21.00;53.10;;;;;;5144998;27;20014;-47
2022/06/16 09:38:02;;;;;;;;;;;21.80;51.50;;;;;;5144769;27;20026;-44
2022/06/16 09:40:31;;;;;;;;;;;21.20;51.40;;;;;;5152494;27;19923;-45
2022/06/16 09:42:59;;;;;;;;;;;20.60;51.70;;;;;;5147187;27;20375;-45
2022/06/16 09:45:26;;;;;;;;;;;20.30;51.00;;;;;;5165700;27;19941;-48
2022/06/16 09:48:05;;;;;;;;;;;20.20;50.90;;;;;;5151209;27;20006;-47
2022/06/16 09:50:46;;;;;;;;;;;20.00;50.90;;;;;;5163950;27;20346;-48
2022/06/16 09:53:28;;;;;;;;;;;19.90;50.60;;;;;;5164450;27;20198;-47
2022/06/16 09:55:55;;;;;;;;;;;19.80;50.40;;;;;;5170226;27;20021;-46
2022/06/16 09:58:47;;;;;;;;;;;19.80;51.60;;;;;;5165124;27;19922;-48
2022/06/16 10:01:13;;;;;;;;;;;20.70;53.60;;;;;;5160086;27;19948;-46
2022/06/16 10:03:48;;;;;;;;;;;21.60;52.80;;;;;;5170896;27;19926;-46
2022/06/16 10:06:14;;;;;;;;;;;21.80;51.60;;;;;;5165067;27;19975;-45
2022/06/16 10:08:40;;;;;;;;;;;20.80;51.90;;;;;;5163495;27;20211;-46
2022/06/16 10:11:11;;;;;;;;;;;20.60;51.50;;;;;;5169142;27;19926;-46
2022/06/16 10:13:41;;;;;;;;;;;20.20;51.10;;;;;;5145687;27;20025;-46
2022/06/16 10:16:11;;;;;;;;;;;20.20;50.90;;;;;;5150105;27;20437;-54
2022/06/16 10:18:38;;;;;;;;;;;19.80;51.10;;;;;;5168449;27;20022;-48
2022/06/16 10:21:07;;;;;;;;;;;20.60;53.60;;;;;;5163793;27;20298;-46
2022/06/16 10:23:41;;;;;;;;;;;21.60;53.00;;;;;;5152118;27;20029;-45
2022/06/16 10:26:07;;;;;;;;;;;21.70;52.10;;;;;;5145529;27;19927;-45
2022/06/16 10:28:36;;;;;;;;;;;20.80;52.10;;;;;;5162688;27;19922;-51
2022/06/16 10:31:03;;;;;;;;;;;20.40;51.70;;;;;;5169348;27;19923;-45
2022/06/16 10:33:33;;;;;;;;;;;20.40;51.00;;;;;;5164209;27;19930;-45
2022/06/16 10:36:01;;;;;;;;;;;20.10;50.80;;;;;;5164303;27;19953;-49
2022/06/16 10:38:32;;;;;;;;;;;20.00;50.90;;;;;;5169932;27;19933;-50
2022/06/16 10:40:59;;;;;;;;;;;20.80;54.00;;;;;;5164347;27;19922;-47
2022/06/16 10:43:24;;;;;;;;;;;21.60;53.20;;;;;;5164188;27;19923;-45
2022/06/16 10:46:02;;;;;;;;;;;21.60;51.90;;;;;;5167751;27;19975;-46
2022/06/16 10:48:31;;;;;;;;;;;20.90;51.80;;;;;;5163344;27;20381;-46
2022/06/16 10:51:06;;;;;;;;;;;20.40;51.70;;;;;;5167984;27;19931;-52
2022/06/16 10:53:32;;;;;;;;;;;20.30;51.10;;;;;;5169473;27;19929;-47
2022/06/16 10:56:16;;;;;;;;;;;20.20;50.60;;;;;;5164014;27;20013;-48
2022/06/16 10:58:46;;;;;;;;;;;20.10;50.40;;;;;;5168475;27;19974;-55
2022/06/16 11:01:17;;;;;;;;;;;20.00;50.20;;;;;;5167586;27;19926;-46
2022/06/16 11:03:44;;;;;;;;;;;19.90;50.30;;;;;;5162531;27;19923;-48
2022/06/16 11:06:11;;;;;;;;;;;20.20;53.20;;;;;;5167945;27;19922;-46
2022/06/16 11:08:38;;;;;;;;;;;21.10;54.10;;;;;;5144717;27;19923;-46
2022/06/16 11:11:04;;;;;;;;;;;21.80;53.10;;;;;;5163651;27;19923;-47
2022/06/16 11:13:32;;;;;;;;;;;21.50;52.20;;;;;;5150598;27;20385;-46
2022/06/16 11:15:57;;;;;;;;;;;20.80;52.20;;;;;;5143884;27;19958;-45
2022/06/16 11:18:24;;;;;;;;;;;20.50;51.70;;;;;;5163799;27;20634;-47
2022/06/16 11:20:51;;;;;;;;;;;20.20;51.50;;;;;;5168974;27;19923;-48
2022/06/16 11:23:20;;;;;;;;;;;20.20;50.80;;;;;;5161159;27;19933;-45
2022/06/16 11:25:46;;;;;;;;;;;20.10;50.50;;;;;;5167611;27;19926;-54
2022/06/16 11:28:13;;;;;;;;;;;20.80;53.60;;;;;;5164278;27;19930;-47
2022/06/16 11:30:47;;;;;;;;;;;21.70;53.00;;;;;;5163439;27;20121;-46
2022/06/16 11:34:06;;;;;;;;;;;21.70;51.80;;;;;;5149985;27;19959;-45
2022/06/16 11:36:23;;;;;;;;;;;20.80;52.10;;;;;;5168683;27;19922;-45
2022/06/16 11:38:52;;;;;;;;;;;20.40;51.70;;;;;;5163262;27;20071;-50
2022/06/16 11:41:18;;;;;;;;;;;20.30;51.00;;;;;;5164490;27;19936;-59
2022/06/16 11:44:03;;;;;;;;;;;20.20;50.60;;;;;;5165195;27;20163;-45
2022/06/16 11:46:30;;;;;;;;;;;20.20;50.40;;;;;;5162837;27;20145;-46
2022/06/16 11:48:59;;;;;;;;;;;20.80;53.30;;;;;;5150298;27;20401;-46
2022/06/16 11:51:34;;;;;;;;;;;21.60;53.10;;;;;;5164281;27;19931;-44
2022/06/16 11:54:02;;;;;;;;;;;21.50;52.20;;;;;;5163260;27;19952;-46
2022/06/16 11:56:33;;;;;;;;;;;20.80;51.90;;;;;;5148221;27;19923;-45
2022/06/16 11:59:17;;;;;;;;;;;20.40;51.70;;;;;;5161380;27;19926;-46
2022/06/16 12:01:47;;;;;;;;;;;20.40;50.90;;;;;;5162038;27;19926;-45
2022/06/16 12:04:22;;;;;;;;;;;20.20;50.50;;;;;;5168115;27;19929;-49
2022/06/16 12:07:06;;;;;;;;;;;20.10;50.40;;;;;;5141366;27;20017;-46
2022/06/16 12:09:36;;;;;;;;;;;20.80;53.80;;;;;;5162853;27;20382;-47
2022/06/16 12:12:17;;;;;;;;;;;21.80;52.40;;;;;;5148265;27;20021;-45
2022/06/16 12:14:51;;;;;;;;;;;21.30;52.00;;;;;;5165388;27;20017;-46
2022/06/16 12:17:19;;;;;;;;;;;20.80;51.90;;;;;;5160929;27;19925;-48
2022/06/16 12:20:06;;;;;;;;;;;20.60;51.10;;;;;;5148261;27;20443;-46
2022/06/16 12:22:50;;;;;;;;;;;20.00;51.40;;;;;;5148591;27;20005;-47
2022/06/16 12:25:36;;;;;;;;;;;20.20;52.20;;;;;;5144000;27;19929;-45
2022/06/16 12:28:02;;;;;;;;;;;21.10;53.40;;;;;;5162142;27;20080;-47
2022/06/16 12:30:32;;;;;;;;;;;21.90;51.20;;;;;;5168156;27;20358;-46
2022/06/16 12:33:04;;;;;;;;;;;20.90;51.90;;;;;;5162223;27;19922;-45
2022/06/16 12:35:49;;;;;;;;;;;20.50;51.40;;;;;;5164173;27;20001;-53
2022/06/16 12:38:32;;;;;;;;;;;20.20;51.10;;;;;;5148048;27;20584;-46
2022/06/16 12:41:02;;;;;;;;;;;20.10;50.90;;;;;;5161887;27;19927;-47
2022/06/16 12:43:34;;;;;;;;;;;20.00;50.30;;;;;;5143411;27;20033;-46
2022/06/16 12:46:01;;;;;;;;;;;20.00;50.30;;;;;;5153288;27;19922;-46
2022/06/16 12:48:29;;;;;;;;;;;20.00;49.90;;;;;;5166662;27;19926;-49
2022/06/16 12:50:55;;;;;;;;;;;19.80;51.20;;;;;;5171459;27;19931;-51
2022/06/16 12:53:23;;;;;;;;;;;20.70;53.30;;;;;;5147491;27;19923;-48
2022/06/16 12:56:08;;;;;;;;;;;21.60;52.40;;;;;;5146105;27;19927;-46
2022/06/16 12:58:49;;;;;;;;;;;21.80;51.40;;;;;;5152753;27;20013;-45
2022/06/16 13:01:15;;;;;;;;;;;20.90;51.50;;;;;;5171193;27;19922;-47
2022/06/16 13:03:43;;;;;;;;;;;20.50;51.40;;;;;;5147586;27;19984;-46
2022/06/16 13:06:09;;;;;;;;;;;20.30;51.00;;;;;;5152019;27;19929;-47
2022/06/16 13:08:36;;;;;;;;;;;20.30;50.30;;;;;;5166322;27;19962;-46
2022/06/16 13:11:02;;;;;;;;;;;20.10;50.30;;;;;;5166290;27;20289;-46
2022/06/16 13:13:29;;;;;;;;;;;20.10;49.70;;;;;;5169233;27;19929;-46
2022/06/16 13:15:55;;;;;;;;;;;20.00;49.60;;;;;;5165576;27;19933;-45
2022/06/16 13:18:23;;;;;;;;;;;20.00;50.10;;;;;;5165545;27;20236;-45
2022/06/16 13:20:53;;;;;;;;;;;20.70;52.60;;;;;;5153173;27;19923;-45
2022/06/16 13:23:29;;;;;;;;;;;21.60;51.80;;;;;;5165821;27;19927;-46
2022/06/16 13:25:56;;;;;;;;;;;21.80;50.50;;;;;;5148222;27;19923;-52
2022/06/16 13:28:31;;;;;;;;;;;20.90;51.10;;;;;;5171099;27;19927;-45
2022/06/16 13:31:13;;;;;;;;;;;20.60;50.30;;;;;;5163065;27;19933;-50
2022/06/16 13:33:43;;;;;;;;;;;20.30;50.40;;;;;;5165760;27;20017;-54
2022/06/16 13:36:16;;;;;;;;;;;20.30;49.70;;;;;;5170927;27;19963;-44
2022/06/16 13:38:42;;;;;;;;;;;20.20;49.30;;;;;;5165583;27;19927;-45
2022/06/16 13:41:27;;;;;;;;;;;20.00;49.60;;;;;;5171056;27;20020;-47
2022/06/16 13:44:09;;;;;;;;;;;20.00;49.20;;;;;;5171223;27;19927;-46
2022/06/16 13:46:48;;;;;;;;;;;19.80;50.90;;;;;;5165556;27;20017;-46
2022/06/16 13:49:27;;;;;;;;;;;20.90;51.80;;;;;;5145190;27;19931;-46
2022/06/16 13:51:53;;;;;;;;;;;21.80;50.40;;;;;;5169648;27;19929;-47
2022/06/16 13:54:27;;;;;;;;;;;21.50;49.80;;;;;;5164833;27;19927;-45
2022/06/16 13:56:53;;;;;;;;;;;20.80;50.50;;;;;;5146956;27;20465;-52
2022/06/16 13:59:25;;;;;;;;;;;20.40;50.30;;;;;;5151481;27;20017;-44
2022/06/16 14:02:06;;;;;;;;;;;20.20;50.10;;;;;;5146276;27;19929;-47
2022/06/16 14:04:32;;;;;;;;;;;20.20;50.50;;;;;;5168051;27;20441;-54
2022/06/16 14:07:05;;;;;;;;;;;21.10;51.40;;;;;;5166621;27;19922;-48
2022/06/16 14:09:32;;;;;;;;;;;22.10;49.30;;;;;;5144787;27;20458;-44
2022/06/16 14:11:58;;;;;;;;;;;21.20;50.00;;;;;;5169984;27;19927;-46
2022/06/16 14:14:24;;;;;;;;;;;20.80;50.00;;;;;;5164648;27;20286;-44
2022/06/16 14:16:54;;;;;;;;;;;20.40;50.00;;;;;;5145867;27;19935;-46
2022/06/16 14:19:30;;;;;;;;;;;20.40;49.60;;;;;;5151694;27;19978;-46
2022/06/16 14:22:03;;;;;;;;;;;20.20;49.70;;;;;;5142167;27;20017;-48
2022/06/16 14:24:33;;;;;;;;;;;20.00;49.40;;;;;;5146250;27;19971;-45
2022/06/16 14:26:59;;;;;;;;;;;20.00;49.30;;;;;;5149076;27;19923;-44
2022/06/16 14:29:25;;;;;;;;;;;19.80;49.40;;;;;;5163871;27;19930;-45
2022/06/16 14:31:53;;;;;;;;;;;20.50;52.00;;;;;;5164384;27;19922;-48
2022/06/16 14:34:22;;;;;;;;;;;21.40;51.20;;;;;;5151563;27;19922;-45
2022/06/16 14:36:57;;;;;;;;;;;22.10;49.50;;;;;;5164584;27;19926;-44
2022/06/16 14:39:28;;;;;;;;;;;21.00;50.70;;;;;;5148428;27;19926;-52
2022/06/16 14:42:02;;;;;;;;;;;20.60;50.40;;;;;;5150741;27;19982;-45
2022/06/16 14:44:35;;;;;;;;;;;20.40;50.10;;;;;;5162744;27;20022;-44